sensor_id;sensor_type;location;lat;lon;timestamp;pressure;altitude;pressure_sealevel;temperature;humidity
54994;BME280;40891;47.242;8.648;2023-05-03T00:00:23;96933.94;;;10.42;100.00
54994;BME280;40891;47.242;8.648;2023-05-03T00:02:50;96936.03;;;10.38;100.00
54994;BME280;40891;47.242;8.648;2023-05-03T00:05:18;96941.16;;;10.40;100.00
54994;BME280;40891;47.242;8.648;2023-05-03T00:07:45;96931.28;;;10.39;100.00
54994;BME280;40891;47.242;8.648;2023-05-03T00:10:11;96932.47;;;10.38;100.00
54994;BME280;40891;47.242;8.648;2023-05-03T00:12:43;96931.00;;;10.33;100.00
54994;BME280;40891;47.242;8.648;2023-05-03T00:15:09;96926.44;;;10.27;100.00
54994;BME280;40891;47.242;8.648;2023-05-03T00:17:35;96933.66;;;10.24;100.00
54994;BME280;40891;47.242;8.648;2023-05-03T00:20:04;96933.72;;;10.20;100.00
54994;BME280;40891;47.242;8.648;2023-05-03T00:22:30;96928.28;;;10.17;100.00
54994;BME280;40891;47.242;8.648;2023-05-03T00:24:58;96928.34;;;10.13;100.00
54994;BME280;40891;47.242;8.648;2023-05-03T00:27:23;96932.41;;;10.09;100.00
54994;BME280;40891;47.242;8.648;2023-05-03T00:29:49;96928.44;;;10.10;100.00
54994;BME280;40891;47.242;8.648;2023-05-03T00:32:16;96924.94;;;10.06;100.00
54994;BME280;40891;47.242;8.648;2023-05-03T00:34:41;96924.59;;;10.04;100.00
54994;BME280;40891;47.242;8.648;2023-05-03T00:37:08;96922.16;;;10.06;100.00
54994;BME280;40891;47.242;8.648;2023-05-03T00:39:33;96919.38;;;10.06;100.00
54994;BME280;40891;47.242;8.648;2023-05-03T00:42:01;96920.63;;;10.05;100.00
54994;BME280;40891;47.242;8.648;2023-05-03T00:44:28;96917.91;;;10.01;100.00
54994;BME280;40891;47.242;8.648;2023-05-03T00:46:54;96919.16;;;10.00;100.00
54994;BME280;40891;47.242;8.648;2023-05-03T00:49:20;96916.44;;;9.97;100.00
54994;BME280;40891;47.242;8.648;2023-05-03T00:51:46;96914.91;;;9.96;100.00
54994;BME280;40891;47.242;8.648;2023-05-03T00:54:11;96918.88;;;9.95;100.00
54994;BME280;40891;47.242;8.648;2023-05-03T00:56:38;96913.66;;;9.97;100.00
54994;BME280;40891;47.242;8.648;2023-05-03T00:59:05;96922.63;;;9.88;100.00
54994;BME280;40891;47.242;8.648;2023-05-03T01:01:30;96914.81;;;9.83;100.00
54994;BME280;40891;47.242;8.648;2023-05-03T01:03:57;96914.81;;;9.83;100.00
54994;BME280;40891;47.242;8.648;2023-05-03T01:06:54;96922.88;;;9.78;100.00
54994;BME280;40891;47.242;8.648;2023-05-03T01:09:31;96923.84;;;9.71;100.00
54994;BME280;40891;47.242;8.648;2023-05-03T01:12:14;96918.00;;;9.66;100.00
54994;BME280;40891;47.242;8.648;2023-05-03T01:17:28;96925.03;;;9.54;100.00
54994;BME280;40891;47.242;8.648;2023-05-03T01:20:04;96921.06;;;9.55;100.00
54994;BME280;40891;47.242;8.648;2023-05-03T01:22:46;96912.47;;;9.49;100.00
54994;BME280;40891;47.242;8.648;2023-05-03T01:25:15;96923.72;;;9.42;100.00
54994;BME280;40891;47.242;8.648;2023-05-03T01:27:41;96919.41;;;9.41;100.00
54994;BME280;40891;47.242;8.648;2023-05-03T01:30:08;96917.56;;;9.35;100.00
54994;BME280;40891;47.242;8.648;2023-05-03T01:35:19;96907.56;;;9.21;100.00
54994;BME280;40891;47.242;8.648;2023-05-03T01:37:48;96911.91;;;9.22;100.00
54994;BME280;40891;47.242;8.648;2023-05-03T01:40:16;96913.13;;;9.21;100.00
54994;BME280;40891;47.242;8.648;2023-05-03T01:42:44;96912.31;;;9.21;100.00
54994;BME280;40891;47.242;8.648;2023-05-03T01:45:10;96915.88;;;9.21;100.00
54994;BME280;40891;47.242;8.648;2023-05-03T01:47:36;96912.31;;;9.21;100.00
54994;BME280;40891;47.242;8.648;2023-05-03T01:50:02;96907.66;;;9.18;100.00
54994;BME280;40891;47.242;8.648;2023-05-03T01:52:27;96911.63;;;9.17;100.00
54994;BME280;40891;47.242;8.648;2023-05-03T01:54:52;96908.41;;;9.18;100.00
54994;BME280;40891;47.242;8.648;2023-05-03T01:57:18;96908.06;;;9.16;100.00
54994;BME280;40891;47.242;8.648;2023-05-03T01:59:43;96905.31;;;9.16;100.00
54994;BME280;40891;47.242;8.648;2023-05-03T02:02:08;96903.31;;;9.17;100.00
54994;BME280;40891;47.242;8.648;2023-05-03T02:04:34;96896.47;;;9.21;100.00
54994;BME280;40891;47.242;8.648;2023-05-03T02:07:00;96915.88;;;9.21;100.00
54994;BME280;40891;47.242;8.648;2023-05-03T02:09:25;96912.78;;;9.19;100.00
54994;BME280;40891;47.242;8.648;2023-05-03T02:11:50;96923.88;;;9.19;100.00
54994;BME280;40891;47.242;8.648;2023-05-03T02:14:16;96917.97;;;9.17;100.00
54994;BME280;40891;47.242;8.648;2023-05-03T02:16:41;96921.25;;;9.12;100.00
54994;BME280;40891;47.242;8.648;2023-05-03T02:19:07;96916.66;;;9.06;100.00
54994;BME280;40891;47.242;8.648;2023-05-03T02:21:33;96911.88;;;9.06;100.00
54994;BME280;40891;47.242;8.648;2023-05-03T02:23:59;96917.44;;;9.06;100.00
54994;BME280;40891;47.242;8.648;2023-05-03T02:26:25;96912.00;;;8.99;100.00
54994;BME280;40891;47.242;8.648;2023-05-03T02:28:50;96916.00;;;8.98;100.00
54994;BME280;40891;47.242;8.648;2023-05-03T02:31:16;96915.22;;;8.98;100.00
54994;BME280;40891;47.242;8.648;2023-05-03T02:33:41;96913.84;;;8.89;100.00
54994;BME280;40891;47.242;8.648;2023-05-03T02:36:07;96916.66;;;8.86;100.00
54994;BME280;40891;47.242;8.648;2023-05-03T02:38:32;96909.13;;;8.86;100.00
54994;BME280;40891;47.242;8.648;2023-05-03T02:40:58;96908.34;;;8.86;100.00
54994;BME280;40891;47.242;8.648;2023-05-03T02:43:24;96907.16;;;8.87;100.00
54994;BME280;40891;47.242;8.648;2023-05-03T02:45:49;96906.91;;;8.78;100.00
54994;BME280;40891;47.242;8.648;2023-05-03T02:48:14;96911.28;;;8.79;100.00
54994;BME280;40891;47.242;8.648;2023-05-03T02:50:40;96912.91;;;8.76;100.00
54994;BME280;40891;47.242;8.648;2023-05-03T02:53:06;96904.59;;;8.76;100.00
54994;BME280;40891;47.242;8.648;2023-05-03T02:55:31;96906.50;;;8.79;100.00
54994;BME280;40891;47.242;8.648;2023-05-03T02:57:57;96898.97;;;8.80;100.00
54994;BME280;40891;47.242;8.648;2023-05-03T03:00:22;96898.91;;;8.83;100.00
54994;BME280;40891;47.242;8.648;2023-05-03T03:02:48;96887.81;;;8.83;100.00
54994;BME280;40891;47.242;8.648;2023-05-03T03:05:13;96890.13;;;8.85;100.00
54994;BME280;40891;47.242;8.648;2023-05-03T03:07:39;96907.31;;;8.80;100.00
54994;BME280;40891;47.242;8.648;2023-05-03T03:10:05;96900.53;;;8.81;100.00
54994;BME280;40891;47.242;8.648;2023-05-03T03:12:31;96908.84;;;8.81;100.00
54994;BME280;40891;47.242;8.648;2023-05-03T03:14:57;96894.34;;;8.73;100.00
54994;BME280;40891;47.242;8.648;2023-05-03T03:17:22;96890.59;;;8.64;100.00
54994;BME280;40891;47.242;8.648;2023-05-03T03:19:47;96886.97;;;8.67;100.00
54994;BME280;40891;47.242;8.648;2023-05-03T03:22:13;96894.59;;;8.63;100.00
54994;BME280;40891;47.242;8.648;2023-05-03T03:24:38;96888.25;;;8.62;100.00
54994;BME280;40891;47.242;8.648;2023-05-03T03:27:03;96884.34;;;8.60;100.00
54994;BME280;40891;47.242;8.648;2023-05-03T03:29:31;96881.22;;;8.58;100.00
54994;BME280;40891;47.242;8.648;2023-05-03T03:31:56;96883.50;;;8.63;100.00
54994;BME280;40891;47.242;8.648;2023-05-03T03:34:22;96886.78;;;8.58;100.00
54994;BME280;40891;47.242;8.648;2023-05-03T03:36:47;96886.56;;;8.49;100.00
54994;BME280;40891;47.242;8.648;2023-05-03T03:39:12;96887.75;;;8.48;100.00
54994;BME280;40891;47.242;8.648;2023-05-03T03:41:38;96888.97;;;8.47;100.00
54994;BME280;40891;47.242;8.648;2023-05-03T03:44:03;96888.97;;;8.47;100.00
54994;BME280;40891;47.242;8.648;2023-05-03T03:46:29;96889.38;;;8.45;100.00
54994;BME280;40891;47.242;8.648;2023-05-03T03:48:54;96883.00;;;8.48;100.00
54994;BME280;40891;47.242;8.648;2023-05-03T03:51:20;96892.94;;;8.46;100.00
54994;BME280;40891;47.242;8.648;2023-05-03T03:53:45;96885.13;;;8.41;100.00
54994;BME280;40891;47.242;8.648;2023-05-03T03:56:10;96893.22;;;8.32;100.00
54994;BME280;40891;47.242;8.648;2023-05-03T03:58:36;96889.75;;;8.28;100.00
54994;BME280;40891;47.242;8.648;2023-05-03T04:01:01;96896.09;;;8.28;100.00
54994;BME280;40891;47.242;8.648;2023-05-03T04:03:27;96890.91;;;8.30;100.00
54994;BME280;40891;47.242;8.648;2023-05-03T04:05:52;96901.09;;;8.33;100.00
54994;BME280;40891;47.242;8.648;2023-05-03T04:08:17;96895.50;;;8.37;100.00
54994;BME280;40891;47.242;8.648;2023-05-03T04:10:43;96890.66;;;8.41;100.00
54994;BME280;40891;47.242;8.648;2023-05-03T04:13:08;96889.38;;;8.45;100.00
54994;BME280;40891;47.242;8.648;2023-05-03T04:15:34;96892.09;;;8.49;100.00
54994;BME280;40891;47.242;8.648;2023-05-03T04:17:59;96887.63;;;8.55;100.00
54994;BME280;40891;47.242;8.648;2023-05-03T04:20:25;96881.94;;;8.62;100.00
54994;BME280;40891;47.242;8.648;2023-05-03T04:22:51;96880.06;;;8.75;100.00
54994;BME280;40891;47.242;8.648;2023-05-03T04:25:16;96879.84;;;8.85;100.00
54994;BME280;40891;47.242;8.648;2023-05-03T04:27:43;96882.09;;;8.90;100.00
54994;BME280;40891;47.242;8.648;2023-05-03T04:30:09;96891.84;;;8.99;100.00
54994;BME280;40891;47.242;8.648;2023-05-03T04:32:36;96885.00;;;9.03;100.00
54994;BME280;40891;47.242;8.648;2023-05-03T04:35:10;96880.50;;;9.09;100.00
54994;BME280;40891;47.242;8.648;2023-05-03T04:37:37;96888.16;;;9.21;100.00
54994;BME280;40891;47.242;8.648;2023-05-03T04:40:03;96892.16;;;9.36;100.00
54994;BME280;40891;47.242;8.648;2023-05-03T04:42:33;96895.97;;;9.42;100.00
54994;BME280;40891;47.242;8.648;2023-05-03T04:44:58;96903.78;;;9.47;100.00
54994;BME280;40891;47.242;8.648;2023-05-03T04:47:23;96905.38;;;9.48;100.00
54994;BME280;40891;47.242;8.648;2023-05-03T04:49:49;96908.13;;;9.65;100.00
54994;BME280;40891;47.242;8.648;2023-05-03T04:52:15;96902.31;;;9.75;100.00
54994;BME280;40891;47.242;8.648;2023-05-03T04:54:40;96902.06;;;9.86;100.00
54994;BME280;40891;47.242;8.648;2023-05-03T04:57:06;96899.78;;;9.97;100.00
54994;BME280;40891;47.242;8.648;2023-05-03T04:59:31;96907.75;;;10.11;100.00
54994;BME280;40891;47.242;8.648;2023-05-03T05:01:56;96917.31;;;10.26;100.00
54994;BME280;40891;47.242;8.648;2023-05-03T05:04:22;96910.31;;;10.34;100.00
54994;BME280;40891;47.242;8.648;2023-05-03T05:06:50;96918.72;;;10.47;100.00
54994;BME280;40891;47.242;8.648;2023-05-03T05:09:23;96914.69;;;10.64;100.00
54994;BME280;40891;47.242;8.648;2023-05-03T05:11:50;96921.38;;;10.66;100.00
54994;BME280;40891;47.242;8.648;2023-05-03T05:14:16;96919.84;;;10.49;100.00
54994;BME280;40891;47.242;8.648;2023-05-03T05:16:41;96931.84;;;10.46;100.00
54994;BME280;40891;47.242;8.648;2023-05-03T05:19:07;96929.19;;;10.55;100.00
54994;BME280;40891;47.242;8.648;2023-05-03T05:21:32;96936.19;;;10.47;100.00
54994;BME280;40891;47.242;8.648;2023-05-03T05:23:58;96920.69;;;10.62;100.00
54994;BME280;40891;47.242;8.648;2023-05-03T05:26:23;96929.31;;;10.52;100.00
54994;BME280;40891;47.242;8.648;2023-05-03T05:28:50;96929.56;;;10.57;100.00
54994;BME280;40891;47.242;8.648;2023-05-03T05:31:15;96931.91;;;10.59;100.00
54994;BME280;40891;47.242;8.648;2023-05-03T05:33:41;96936.88;;;10.51;100.00
54994;BME280;40891;47.242;8.648;2023-05-03T05:36:06;96944.03;;;10.65;100.00
54994;BME280;40891;47.242;8.648;2023-05-03T05:38:32;96943.94;;;10.68;100.00
54994;BME280;40891;47.242;8.648;2023-05-03T05:40:57;96942.94;;;10.62;100.00
54994;BME280;40891;47.242;8.648;2023-05-03T05:43:22;96937.53;;;10.55;100.00
54994;BME280;40891;47.242;8.648;2023-05-03T05:45:48;96946.66;;;10.56;100.00
54994;BME280;40891;47.242;8.648;2023-05-03T05:48:13;96940.44;;;10.52;100.00
54994;BME280;40891;47.242;8.648;2023-05-03T05:50:39;96952.19;;;10.43;100.00
54994;BME280;40891;47.242;8.648;2023-05-03T05:53:04;96949.94;;;10.38;100.00
54994;BME280;40891;47.242;8.648;2023-05-03T05:55:29;96947.06;;;10.42;100.00
54994;BME280;40891;47.242;8.648;2023-05-03T05:57:55;96956.28;;;10.39;100.00
54994;BME280;40891;47.242;8.648;2023-05-03T06:00:20;96955.16;;;10.36;100.00
54994;BME280;40891;47.242;8.648;2023-05-03T06:02:46;96950.63;;;10.42;100.00
54994;BME280;40891;47.242;8.648;2023-05-03T06:05:11;96949.22;;;10.50;100.00
54994;BME280;40891;47.242;8.648;2023-05-03T06:07:37;96945.34;;;10.60;100.00
54994;BME280;40891;47.242;8.648;2023-05-03T06:10:03;96945.53;;;10.69;100.00
54994;BME280;40891;47.242;8.648;2023-05-03T06:12:29;96939.19;;;10.81;100.00
54994;BME280;40891;47.242;8.648;2023-05-03T06:14:54;96932.56;;;10.91;100.00
54994;BME280;40891;47.242;8.648;2023-05-03T06:17:20;96928.72;;;11.14;100.00
54994;BME280;40891;47.242;8.648;2023-05-03T06:19:47;96934.63;;;11.29;100.00
54994;BME280;40891;47.242;8.648;2023-05-03T06:22:16;96931.50;;;11.27;100.00
54994;BME280;40891;47.242;8.648;2023-05-03T06:24:41;96928.75;;;11.52;100.00
54994;BME280;40891;47.242;8.648;2023-05-03T06:27:06;96930.34;;;11.78;100.00
54994;BME280;40891;47.242;8.648;2023-05-03T06:29:32;96930.84;;;11.86;100.00
54994;BME280;40891;47.242;8.648;2023-05-03T06:31:57;96936.09;;;11.96;100.00
54994;BME280;40891;47.242;8.648;2023-05-03T06:34:24;96934.19;;;11.93;99.53
54994;BME280;40891;47.242;8.648;2023-05-03T06:36:49;96935.00;;;11.81;100.00
54994;BME280;40891;47.242;8.648;2023-05-03T06:39:15;96935.50;;;12.14;99.86
54994;BME280;40891;47.242;8.648;2023-05-03T06:41:40;96933.94;;;12.47;100.00
54994;BME280;40891;47.242;8.648;2023-05-03T06:44:06;96932.03;;;12.78;96.52
54994;BME280;40891;47.242;8.648;2023-05-03T06:46:32;96932.56;;;13.29;96.94
54994;BME280;40891;47.242;8.648;2023-05-03T06:48:57;96917.81;;;13.59;91.40
54994;BME280;40891;47.242;8.648;2023-05-03T06:51:23;96927.22;;;13.84;87.44
54994;BME280;40891;47.242;8.648;2023-05-03T06:53:58;96921.03;;;13.89;86.12
54994;BME280;40891;47.242;8.648;2023-05-03T06:56:32;96921.34;;;13.91;86.47
54994;BME280;40891;47.242;8.648;2023-05-03T06:58:58;96920.59;;;14.08;86.99
54994;BME280;40891;47.242;8.648;2023-05-03T07:01:23;96917.00;;;14.08;84.69
54994;BME280;40891;47.242;8.648;2023-05-03T07:03:48;96905.44;;;14.37;87.48
54994;BME280;40891;47.242;8.648;2023-05-03T07:06:14;96911.50;;;14.35;85.31
54994;BME280;40891;47.242;8.648;2023-05-03T07:08:40;96909.03;;;14.55;86.66
54994;BME280;40891;47.242;8.648;2023-05-03T07:11:06;96898.91;;;14.85;85.16
54994;BME280;40891;47.242;8.648;2023-05-03T07:13:31;96902.81;;;14.33;82.45
54994;BME280;40891;47.242;8.648;2023-05-03T07:15:56;96898.56;;;14.28;82.73
54994;BME280;40891;47.242;8.648;2023-05-03T07:18:22;96897.69;;;14.41;84.94
54994;BME280;40891;47.242;8.648;2023-05-03T07:20:47;96899.88;;;14.46;83.94
54994;BME280;40891;47.242;8.648;2023-05-03T07:23:13;96894.59;;;14.48;84.11
54994;BME280;40891;47.242;8.648;2023-05-03T07:25:40;96892.31;;;14.15;82.07
54994;BME280;40891;47.242;8.648;2023-05-03T07:28:06;96887.72;;;14.40;83.79
54994;BME280;40891;47.242;8.648;2023-05-03T07:30:31;96894.72;;;14.44;84.50
54994;BME280;40891;47.242;8.648;2023-05-03T07:32:56;96894.22;;;14.18;83.65
54994;BME280;40891;47.242;8.648;2023-05-03T07:35:22;96884.91;;;14.21;83.45
54994;BME280;40891;47.242;8.648;2023-05-03T07:37:47;96898.00;;;13.85;81.57
54994;BME280;40891;47.242;8.648;2023-05-03T07:40:13;96886.91;;;14.21;84.49
54994;BME280;40891;47.242;8.648;2023-05-03T07:42:38;96881.34;;;14.48;83.40
54994;BME280;40891;47.242;8.648;2023-05-03T07:45:04;96872.00;;;14.60;79.79
54994;BME280;40891;47.242;8.648;2023-05-03T07:47:30;96877.59;;;14.87;80.33
54994;BME280;40891;47.242;8.648;2023-05-03T07:49:56;96871.06;;;14.90;82.42
54994;BME280;40891;47.242;8.648;2023-05-03T07:52:22;96878.69;;;14.63;83.12
54994;BME280;40891;47.242;8.648;2023-05-03T07:54:47;96876.69;;;14.63;84.09
54994;BME280;40891;47.242;8.648;2023-05-03T07:57:13;96875.44;;;14.37;82.24
54994;BME280;40891;47.242;8.648;2023-05-03T07:59:40;96865.16;;;14.16;82.96
54994;BME280;40891;47.242;8.648;2023-05-03T08:02:06;96863.63;;;14.24;81.78
54994;BME280;40891;47.242;8.648;2023-05-03T08:04:31;96863.91;;;14.26;81.43
54994;BME280;40891;47.242;8.648;2023-05-03T08:07:01;96860.06;;;14.51;79.23
54994;BME280;40891;47.242;8.648;2023-05-03T08:09:27;96850.44;;;14.34;79.29
54994;BME280;40891;47.242;8.648;2023-05-03T08:11:56;96856.81;;;14.43;80.17
54994;BME280;40891;47.242;8.648;2023-05-03T08:14:24;96854.31;;;14.45;80.95
54994;BME280;40891;47.242;8.648;2023-05-03T08:16:49;96851.81;;;14.47;80.00
54994;BME280;40891;47.242;8.648;2023-05-03T08:19:15;96853.06;;;14.37;79.29
54994;BME280;40891;47.242;8.648;2023-05-03T08:21:40;96846.22;;;14.56;79.07
54994;BME280;40891;47.242;8.648;2023-05-03T08:24:07;96845.41;;;14.83;77.27
54994;BME280;40891;47.242;8.648;2023-05-03T08:26:34;96840.28;;;14.90;79.57
54994;BME280;40891;47.242;8.648;2023-05-03T08:28:59;96838.84;;;15.04;79.43
54994;BME280;40891;47.242;8.648;2023-05-03T08:31:27;96830.50;;;15.28;75.08
54994;BME280;40891;47.242;8.648;2023-05-03T08:33:52;96831.66;;;15.54;74.84
54994;BME280;40891;47.242;8.648;2023-05-03T08:36:18;96831.31;;;15.61;75.33
54994;BME280;40891;47.242;8.648;2023-05-03T08:38:43;96831.88;;;15.98;76.36
54994;BME280;40891;47.242;8.648;2023-05-03T08:41:17;96827.63;;;16.02;71.72
54994;BME280;40891;47.242;8.648;2023-05-03T08:43:49;96825.13;;;16.04;74.84
54994;BME280;40891;47.242;8.648;2023-05-03T08:46:16;96828.97;;;15.92;71.69
54994;BME280;40891;47.242;8.648;2023-05-03T08:48:42;96812.88;;;15.69;71.95
54994;BME280;40891;47.242;8.648;2023-05-03T08:51:09;96814.75;;;15.72;72.10
54994;BME280;40891;47.242;8.648;2023-05-03T08:53:35;96813.09;;;15.89;71.53
54994;BME280;40891;47.242;8.648;2023-05-03T08:56:05;96810.06;;;16.16;73.70
54994;BME280;40891;47.242;8.648;2023-05-03T08:58:33;96812.00;;;16.10;73.99
54994;BME280;40891;47.242;8.648;2023-05-03T09:01:07;96809.19;;;16.49;72.05
54994;BME280;40891;47.242;8.648;2023-05-03T09:03:33;96806.69;;;16.51;70.05
54994;BME280;40891;47.242;8.648;2023-05-03T09:05:59;96807.50;;;16.80;71.49
54994;BME280;40891;47.242;8.648;2023-05-03T09:08:29;96808.47;;;17.21;70.04
54994;BME280;40891;47.242;8.648;2023-05-03T09:10:56;96804.16;;;17.40;67.37
54994;BME280;40891;47.242;8.648;2023-05-03T09:13:29;96806.06;;;17.63;66.87
54994;BME280;40891;47.242;8.648;2023-05-03T09:15:56;96805.84;;;17.82;67.78
54994;BME280;40891;47.242;8.648;2023-05-03T09:18:22;96799.66;;;17.98;65.60
54994;BME280;40891;47.242;8.648;2023-05-03T09:20:49;96811.53;;;18.27;65.60
54994;BME280;40891;47.242;8.648;2023-05-03T09:23:16;96804.16;;;18.50;62.67
54994;BME280;40891;47.242;8.648;2023-05-03T09:25:43;96803.44;;;18.55;64.90
54994;BME280;40891;47.242;8.648;2023-05-03T09:28:10;96803.94;;;18.54;60.10
54994;BME280;40891;47.242;8.648;2023-05-03T09:30:35;96803.91;;;18.99;61.77
54994;BME280;40891;47.242;8.648;2023-05-03T09:33:01;96803.06;;;18.93;60.96
54994;BME280;40891;47.242;8.648;2023-05-03T09:35:26;96812.13;;;19.34;58.05
54994;BME280;40891;47.242;8.648;2023-05-03T09:37:53;96802.22;;;19.81;57.99
54994;BME280;40891;47.242;8.648;2023-05-03T09:40:18;96812.38;;;19.62;57.86
54994;BME280;40891;47.242;8.648;2023-05-03T09:43:09;96802.06;;;19.96;55.77
54994;BME280;40891;47.242;8.648;2023-05-03T09:45:36;96800.97;;;20.30;56.63
54994;BME280;40891;47.242;8.648;2023-05-03T09:48:02;96796.81;;;20.25;54.75
54994;BME280;40891;47.242;8.648;2023-05-03T09:50:30;96802.00;;;19.48;56.32
54994;BME280;40891;47.242;8.648;2023-05-03T09:52:58;96805.63;;;19.91;57.63
54994;BME280;40891;47.242;8.648;2023-05-03T09:55:26;96810.78;;;19.98;57.92
54994;BME280;40891;47.242;8.648;2023-05-03T09:57:53;96807.72;;;19.96;56.55
54994;BME280;40891;47.242;8.648;2023-05-03T10:00:19;96795.13;;;20.50;56.61
54994;BME280;40891;47.242;8.648;2023-05-03T10:02:47;96800.84;;;20.72;55.10
54994;BME280;40891;47.242;8.648;2023-05-03T10:05:15;96807.03;;;20.87;53.35
54994;BME280;40891;47.242;8.648;2023-05-03T10:07:48;96806.09;;;21.35;54.03
54994;BME280;40891;47.242;8.648;2023-05-03T10:10:15;96810.47;;;21.41;52.73
54994;BME280;40891;47.242;8.648;2023-05-03T10:12:42;96820.22;;;21.85;52.49
54994;BME280;40891;47.242;8.648;2023-05-03T10:15:09;96813.53;;;21.88;49.39
54994;BME280;40891;47.242;8.648;2023-05-03T10:17:38;96809.53;;;22.35;50.51
54994;BME280;40891;47.242;8.648;2023-05-03T10:20:32;96810.72;;;21.93;48.36
54994;BME280;40891;47.242;8.648;2023-05-03T10:25:28;96821.47;;;22.11;49.33
54994;BME280;40891;47.242;8.648;2023-05-03T10:28:00;96811.38;;;22.90;46.54
54994;BME280;40891;47.242;8.648;2023-05-03T10:30:35;96814.13;;;23.01;47.48
54994;BME280;40891;47.242;8.648;2023-05-03T10:35:38;96797.56;;;23.76;45.86
54994;BME280;40891;47.242;8.648;2023-05-03T10:38:19;96806.09;;;23.76;45.42
54994;BME280;40891;47.242;8.648;2023-05-03T10:40:44;96795.16;;;23.55;45.09
54994;BME280;40891;47.242;8.648;2023-05-03T10:46:01;96777.72;;;23.70;43.06
54994;BME280;40891;47.242;8.648;2023-05-03T10:48:27;96788.72;;;23.55;42.26
54994;BME280;40891;47.242;8.648;2023-05-03T10:50:54;96786.56;;;23.91;42.17
54994;BME280;40891;47.242;8.648;2023-05-03T10:56:04;96789.00;;;24.29;41.96
54994;BME280;40891;47.242;8.648;2023-05-03T10:58:35;96789.38;;;24.20;42.66
54994;BME280;40891;47.242;8.648;2023-05-03T11:01:04;96783.97;;;24.60;42.55
54994;BME280;40891;47.242;8.648;2023-05-03T11:05:59;96775.75;;;24.75;41.27
54994;BME280;40891;47.242;8.648;2023-05-03T11:08:25;96776.84;;;24.90;42.19
54994;BME280;40891;47.242;8.648;2023-05-03T11:10:59;96772.25;;;25.83;37.46
54994;BME280;40891;47.242;8.648;2023-05-03T11:13:25;96769.63;;;26.50;38.76
54994;BME280;40891;47.242;8.648;2023-05-03T11:15:54;96763.03;;;27.15;36.93
54994;BME280;40891;47.242;8.648;2023-05-03T11:18:20;96758.00;;;28.11;35.31
54994;BME280;40891;47.242;8.648;2023-05-03T11:20:46;96753.59;;;28.74;33.43
54994;BME280;40891;47.242;8.648;2023-05-03T11:23:12;96747.94;;;29.86;32.75
54994;BME280;40891;47.242;8.648;2023-05-03T11:25:37;96746.56;;;29.79;31.52
54994;BME280;40891;47.242;8.648;2023-05-03T11:28:03;96746.75;;;30.19;30.83
54994;BME280;40891;47.242;8.648;2023-05-03T11:30:32;96743.22;;;31.38;29.61
54994;BME280;40891;47.242;8.648;2023-05-03T11:32:59;96734.16;;;31.74;28.20
54994;BME280;40891;47.242;8.648;2023-05-03T11:35:27;96734.16;;;31.98;28.06
54994;BME280;40891;47.242;8.648;2023-05-03T11:37:53;96736.25;;;32.22;27.08
54994;BME280;40891;47.242;8.648;2023-05-03T11:40:18;96735.59;;;32.66;27.60
54994;BME280;40891;47.242;8.648;2023-05-03T11:42:57;96731.44;;;33.20;27.49
54994;BME280;40891;47.242;8.648;2023-05-03T11:45:24;96732.81;;;33.19;26.09
54994;BME280;40891;47.242;8.648;2023-05-03T11:47:50;96731.66;;;33.58;25.63
54994;BME280;40891;47.242;8.648;2023-05-03T11:50:17;96722.84;;;33.56;25.64
54994;BME280;40891;47.242;8.648;2023-05-03T11:52:43;96727.00;;;33.73;25.94
54994;BME280;40891;47.242;8.648;2023-05-03T11:55:10;96717.13;;;33.39;25.54
54994;BME280;40891;47.242;8.648;2023-05-03T11:57:36;96720.53;;;33.91;25.13
54994;BME280;40891;47.242;8.648;2023-05-03T12:00:15;96718.72;;;34.70;24.95
54994;BME280;40891;47.242;8.648;2023-05-03T12:02:46;96722.63;;;33.72;25.51
54994;BME280;40891;47.242;8.648;2023-05-03T12:05:12;96725.50;;;34.27;23.66
54994;BME280;40891;47.242;8.648;2023-05-03T12:07:37;96716.34;;;33.29;23.67
54994;BME280;40891;47.242;8.648;2023-05-03T12:10:16;96719.13;;;32.93;25.88
54994;BME280;40891;47.242;8.648;2023-05-03T12:12:55;96713.81;;;32.55;27.12
54994;BME280;40891;47.242;8.648;2023-05-03T12:15:32;96712.72;;;32.51;26.05
54994;BME280;40891;47.242;8.648;2023-05-03T12:17:59;96704.34;;;33.06;25.92
54994;BME280;40891;47.242;8.648;2023-05-03T12:20:26;96700.44;;;33.11;25.23
54994;BME280;40891;47.242;8.648;2023-05-03T12:22:58;96694.72;;;33.21;25.24
54994;BME280;40891;47.242;8.648;2023-05-03T12:25:24;96693.00;;;33.71;25.64
54994;BME280;40891;47.242;8.648;2023-05-03T12:27:52;96697.81;;;33.59;24.68
54994;BME280;40891;47.242;8.648;2023-05-03T12:30:18;96694.31;;;33.24;23.55
54994;BME280;40891;47.242;8.648;2023-05-03T12:32:43;96689.63;;;33.29;23.87
54994;BME280;40891;47.242;8.648;2023-05-03T12:35:09;96689.19;;;33.42;24.69
54994;BME280;40891;47.242;8.648;2023-05-03T12:37:35;96687.97;;;33.35;24.44
54994;BME280;40891;47.242;8.648;2023-05-03T12:40:02;96679.22;;;33.89;23.85
54994;BME280;40891;47.242;8.648;2023-05-03T12:42:27;96674.31;;;34.56;23.19
54994;BME280;40891;47.242;8.648;2023-05-03T12:44:56;96668.06;;;34.60;23.56
54994;BME280;40891;47.242;8.648;2023-05-03T12:47:21;96668.13;;;35.19;21.65
54994;BME280;40891;47.242;8.648;2023-05-03T12:49:47;96671.56;;;34.58;22.74
54994;BME280;40891;47.242;8.648;2023-05-03T12:52:12;96663.50;;;34.85;22.00
54994;BME280;40891;47.242;8.648;2023-05-03T12:54:38;96665.47;;;34.35;22.75
54994;BME280;40891;47.242;8.648;2023-05-03T12:57:03;96665.63;;;34.75;23.34
54994;BME280;40891;47.242;8.648;2023-05-03T12:59:29;96659.69;;;35.73;21.37
54994;BME280;40891;47.242;8.648;2023-05-03T13:01:54;96664.84;;;35.44;22.29
54994;BME280;40891;47.242;8.648;2023-05-03T13:04:20;96659.84;;;34.75;21.92
54994;BME280;40891;47.242;8.648;2023-05-03T13:06:46;96659.69;;;35.33;21.47
54994;BME280;40891;47.242;8.648;2023-05-03T13:09:13;96658.31;;;34.84;22.95
54994;BME280;40891;47.242;8.648;2023-05-03T13:11:41;96649.63;;;35.03;21.23
54994;BME280;40891;47.242;8.648;2023-05-03T13:14:06;96646.84;;;35.86;21.04